sensor_id;sensor_type;location;lat;lon;timestamp;P1;durP1;ratioP1;P2;durP2;ratioP2
51491;SDS011;37569;50.548;8.778;2022-07-23T00:00:35;11.1;;;8.1;;
51491;SDS011;37569;50.548;8.778;2022-07-23T00:05:36;10.8;;;8;;
51491;SDS011;37569;50.548;8.778;2022-07-23T00:10:36;11.1;;;8.4;;
51491;SDS011;37569;50.548;8.778;2022-07-23T00:15:37;9.7;;;8.1;;
51491;SDS011;37569;50.548;8.778;2022-07-23T00:20:38;9.6;;;7.8;;
51491;SDS011;37569;50.548;8.778;2022-07-23T00:25:39;10.5;;;8;;
51491;SDS011;37569;50.548;8.778;2022-07-23T00:30:39;9.8;;;8.5;;
51491;SDS011;37569;50.548;8.778;2022-07-23T00:35:40;12.3;;;9.5;;
51491;SDS011;37569;50.548;8.778;2022-07-23T00:40:41;11.5;;;10.3;;
51491;SDS011;37569;50.548;8.778;2022-07-23T00:45:42;11.2;;;9.8;;
51491;SDS011;37569;50.548;8.778;2022-07-23T00:50:43;13.5;;;10.3;;
51491;SDS011;37569;50.548;8.778;2022-07-23T00:55:43;14.5;;;10.7;;
51491;SDS011;37569;50.548;8.778;2022-07-23T01:00:44;16.1;;;11.3;;
51491;SDS011;37569;50.548;8.778;2022-07-23T01:05:45;14.3;;;11;;
51491;SDS011;37569;50.548;8.778;2022-07-23T01:10:45;13.3;;;10.7;;
51491;SDS011;37569;50.548;8.778;2022-07-23T01:15:46;11.6;;;10.4;;
51491;SDS011;37569;50.548;8.778;2022-07-23T01:20:47;12;;;10.5;;
51491;SDS011;37569;50.548;8.778;2022-07-23T01:25:48;11.8;;;10.5;;
51491;SDS011;37569;50.548;8.778;2022-07-23T01:30:48;13.2;;;10.6;;
51491;SDS011;37569;50.548;8.778;2022-07-23T01:35:49;13.1;;;10.4;;
51491;SDS011;37569;50.548;8.778;2022-07-23T01:40:49;13.8;;;10.5;;
51491;SDS011;37569;50.548;8.778;2022-07-23T01:45:50;12.8;;;10.9;;
51491;SDS011;37569;50.548;8.778;2022-07-23T01:50:51;14;;;11.2;;
51491;SDS011;37569;50.548;8.778;2022-07-23T01:55:52;12.7;;;11.4;;
51491;SDS011;37569;50.548;8.778;2022-07-23T02:00:52;12.2;;;10.7;;
51491;SDS011;37569;50.548;8.778;2022-07-23T02:05:53;13;;;10.5;;
51491;SDS011;37569;50.548;8.778;2022-07-23T02:10:53;13.5;;;10.9;;
51491;SDS011;37569;50.548;8.778;2022-07-23T02:15:54;14.7;;;10.8;;
51491;SDS011;37569;50.548;8.778;2022-07-23T02:20:55;13.8;;;11.2;;
51491;SDS011;37569;50.548;8.778;2022-07-23T02:25:55;14.5;;;11.2;;
51491;SDS011;37569;50.548;8.778;2022-07-23T02:30:56;13.4;;;11.4;;
51491;SDS011;37569;50.548;8.778;2022-07-23T02:35:57;15.8;;;12.2;;
51491;SDS011;37569;50.548;8.778;2022-07-23T02:40:58;15.8;;;12.4;;
51491;SDS011;37569;50.548;8.778;2022-07-23T02:45:58;17.1;;;13.2;;
51491;SDS011;37569;50.548;8.778;2022-07-23T02:50:59;17.9;;;13.8;;
51491;SDS011;37569;50.548;8.778;2022-07-23T02:56:00;17;;;14.3;;
51491;SDS011;37569;50.548;8.778;2022-07-23T03:01:00;16.3;;;13.6;;
51491;SDS011;37569;50.548;8.778;2022-07-23T03:06:01;19.3;;;15.3;;
51491;SDS011;37569;50.548;8.778;2022-07-23T03:11:02;17.9;;;14;;
51491;SDS011;37569;50.548;8.778;2022-07-23T03:16:02;18.1;;;13.7;;
51491;SDS011;37569;50.548;8.778;2022-07-23T03:21:03;18.1;;;14.6;;
51491;SDS011;37569;50.548;8.778;2022-07-23T03:26:04;18;;;14.3;;
51491;SDS011;37569;50.548;8.778;2022-07-23T03:31:04;18.2;;;14.2;;
51491;SDS011;37569;50.548;8.778;2022-07-23T03:36:05;15.9;;;13.3;;
51491;SDS011;37569;50.548;8.778;2022-07-23T03:41:06;17.7;;;13.3;;
51491;SDS011;37569;50.548;8.778;2022-07-23T03:46:06;17.6;;;13.6;;
51491;SDS011;37569;50.548;8.778;2022-07-23T03:51:07;15.9;;;12.9;;
51491;SDS011;37569;50.548;8.778;2022-07-23T03:56:07;14.9;;;12.3;;
51491;SDS011;37569;50.548;8.778;2022-07-23T04:01:08;15.5;;;12.8;;
51491;SDS011;37569;50.548;8.778;2022-07-23T04:06:09;15.3;;;12.7;;
51491;SDS011;37569;50.548;8.778;2022-07-23T04:11:09;15.2;;;13.3;;
51491;SDS011;37569;50.548;8.778;2022-07-23T04:16:10;16.4;;;12.2;;
51491;SDS011;37569;50.548;8.778;2022-07-23T04:21:11;14.5;;;12.1;;
51491;SDS011;37569;50.548;8.778;2022-07-23T04:26:11;15.3;;;11.7;;
51491;SDS011;37569;50.548;8.778;2022-07-23T04:31:12;13.9;;;11.3;;
51491;SDS011;37569;50.548;8.778;2022-07-23T04:36:13;14.4;;;11.2;;
51491;SDS011;37569;50.548;8.778;2022-07-23T04:41:14;13.7;;;11.6;;
51491;SDS011;37569;50.548;8.778;2022-07-23T04:46:14;14.1;;;11.4;;
51491;SDS011;37569;50.548;8.778;2022-07-23T04:51:15;13.1;;;11.1;;
51491;SDS011;37569;50.548;8.778;2022-07-23T04:56:16;15.6;;;10.8;;
51491;SDS011;37569;50.548;8.778;2022-07-23T05:01:16;14;;;11.1;;
51491;SDS011;37569;50.548;8.778;2022-07-23T05:06:17;13.2;;;10.5;;
51491;SDS011;37569;50.548;8.778;2022-07-23T05:11:18;14.6;;;10.7;;
51491;SDS011;37569;50.548;8.778;2022-07-23T05:16:19;12.7;;;10.9;;
51491;SDS011;37569;50.548;8.778;2022-07-23T05:21:19;12.2;;;10.6;;
51491;SDS011;37569;50.548;8.778;2022-07-23T05:26:23;13.5;;;10.7;;
51491;SDS011;37569;50.548;8.778;2022-07-23T05:31:21;12.8;;;10.9;;
51491;SDS011;37569;50.548;8.778;2022-07-23T05:36:22;11.7;;;9.6;;
51491;SDS011;37569;50.548;8.778;2022-07-23T05:41:23;10.5;;;9.4;;
51491;SDS011;37569;50.548;8.778;2022-07-23T05:46:24;10;;;8.7;;
51491;SDS011;37569;50.548;8.778;2022-07-23T05:51:25;9.5;;;7.6;;
51491;SDS011;37569;50.548;8.778;2022-07-23T05:56:25;10;;;7.8;;
51491;SDS011;37569;50.548;8.778;2022-07-23T06:01:26;8.9;;;7.5;;
51491;SDS011;37569;50.548;8.778;2022-07-23T06:06:27;8.6;;;7.6;;
51491;SDS011;37569;50.548;8.778;2022-07-23T06:11:28;7.7;;;6.6;;
51491;SDS011;37569;50.548;8.778;2022-07-23T06:16:30;7.9;;;6.2;;
51491;SDS011;37569;50.548;8.778;2022-07-23T06:21:31;7;;;5.6;;
51491;SDS011;37569;50.548;8.778;2022-07-23T06:26:32;6.9;;;5.1;;
51491;SDS011;37569;50.548;8.778;2022-07-23T06:31:33;6.2;;;5;;
51491;SDS011;37569;50.548;8.778;2022-07-23T06:36:34;6;;;4.9;;
51491;SDS011;37569;50.548;8.778;2022-07-23T06:41:35;6;;;4.6;;
51491;SDS011;37569;50.548;8.778;2022-07-23T06:46:36;6.7;;;4.6;;
51491;SDS011;37569;50.548;8.778;2022-07-23T06:51:37;6.6;;;4.2;;
51491;SDS011;37569;50.548;8.778;2022-07-23T06:56:38;4.8;;;4.2;;
51491;SDS011;37569;50.548;8.778;2022-07-23T07:01:39;5.6;;;4.3;;
51491;SDS011;37569;50.548;8.778;2022-07-23T07:06:40;7.4;;;6.2;;
51491;SDS011;37569;50.548;8.778;2022-07-23T07:11:41;9.1;;;6.9;;
51491;SDS011;37569;50.548;8.778;2022-07-23T07:16:42;8.4;;;6.4;;
51491;SDS011;37569;50.548;8.778;2022-07-23T07:21:43;7.5;;;6.2;;
51491;SDS011;37569;50.548;8.778;2022-07-23T07:26:44;7.6;;;6;;
51491;SDS011;37569;50.548;8.778;2022-07-23T07:31:45;8;;;5.9;;
51491;SDS011;37569;50.548;8.778;2022-07-23T07:36:46;6.7;;;5.8;;
51491;SDS011;37569;50.548;8.778;2022-07-23T07:41:47;9.5;;;6.4;;
51491;SDS011;37569;50.548;8.778;2022-07-23T07:46:49;9.3;;;6.4;;
51491;SDS011;37569;50.548;8.778;2022-07-23T07:51:50;8.9;;;6.1;;
51491;SDS011;37569;50.548;8.778;2022-07-23T07:56:51;8.7;;;5.7;;
51491;SDS011;37569;50.548;8.778;2022-07-23T08:01:52;7.6;;;6.2;;
51491;SDS011;37569;50.548;8.778;2022-07-23T08:06:53;7.4;;;5.6;;
51491;SDS011;37569;50.548;8.778;2022-07-23T08:11:54;6.1;;;5;;
51491;SDS011;37569;50.548;8.778;2022-07-23T08:16:55;6.8;;;4.6;;
51491;SDS011;37569;50.548;8.778;2022-07-23T08:21:56;6.9;;;4.7;;
51491;SDS011;37569;50.548;8.778;2022-07-23T08:26:57;5.3;;;4.2;;
51491;SDS011;37569;50.548;8.778;2022-07-23T08:31:58;6.4;;;4.7;;
51491;SDS011;37569;50.548;8.778;2022-07-23T08:37:00;4.3;;;3.9;;
51491;SDS011;37569;50.548;8.778;2022-07-23T08:42:01;6.6;;;4.6;;
51491;SDS011;37569;50.548;8.778;2022-07-23T08:47:02;5.4;;;4.4;;
51491;SDS011;37569;50.548;8.778;2022-07-23T08:52:03;5.4;;;4.3;;
51491;SDS011;37569;50.548;8.778;2022-07-23T08:57:04;5.2;;;4.7;;
51491;SDS011;37569;50.548;8.778;2022-07-23T09:02:05;6.8;;;4.9;;
51491;SDS011;37569;50.548;8.778;2022-07-23T09:07:06;4.9;;;4.4;;
51491;SDS011;37569;50.548;8.778;2022-07-23T09:12:08;4.8;;;4;;
51491;SDS011;37569;50.548;8.778;2022-07-23T09:17:10;5.1;;;4.6;;
51491;SDS011;37569;50.548;8.778;2022-07-23T09:22:18;5.9;;;4.3;;
51491;SDS011;37569;50.548;8.778;2022-07-23T09:27:11;4.4;;;4;;
51491;SDS011;37569;50.548;8.778;2022-07-23T09:32:13;4.2;;;3.8;;
51491;SDS011;37569;50.548;8.778;2022-07-23T09:37:15;4.3;;;3.9;;
51491;SDS011;37569;50.548;8.778;2022-07-23T09:42:16;4.5;;;4.1;;
51491;SDS011;37569;50.548;8.778;2022-07-23T09:47:16;5.1;;;4.3;;
51491;SDS011;37569;50.548;8.778;2022-07-23T09:52:17;5;;;4.3;;
51491;SDS011;37569;50.548;8.778;2022-07-23T09:57:18;4.9;;;4.4;;
51491;SDS011;37569;50.548;8.778;2022-07-23T10:02:19;5.8;;;4.4;;
51491;SDS011;37569;50.548;8.778;2022-07-23T10:07:21;5.3;;;4.8;;
51491;SDS011;37569;50.548;8.778;2022-07-23T10:12:22;5.1;;;4.6;;
51491;SDS011;37569;50.548;8.778;2022-07-23T10:17:23;6.5;;;4.8;;
51491;SDS011;37569;50.548;8.778;2022-07-23T10:22:25;5.1;;;4.6;;
51491;SDS011;37569;50.548;8.778;2022-07-23T10:32:29;5.8;;;4.8;;
51491;SDS011;37569;50.548;8.778;2022-07-23T10:37:28;6;;;5;;
51491;SDS011;37569;50.548;8.778;2022-07-23T10:42:33;5.6;;;5.1;;
51491;SDS011;37569;50.548;8.778;2022-07-23T10:47:30;6;;;5.1;;
51491;SDS011;37569;50.548;8.778;2022-07-23T10:52:31;5.6;;;5;;
51491;SDS011;37569;50.548;8.778;2022-07-23T10:57:32;6.5;;;5.9;;
51491;SDS011;37569;50.548;8.778;2022-07-23T11:02:34;6.3;;;5.7;;
51491;SDS011;37569;50.548;8.778;2022-07-23T11:07:35;6.6;;;5.5;;
51491;SDS011;37569;50.548;8.778;2022-07-23T11:12:36;6.9;;;5.7;;
51491;SDS011;37569;50.548;8.778;2022-07-23T11:17:39;6.7;;;6;;
51491;SDS011;37569;50.548;8.778;2022-07-23T11:22:39;6.5;;;5.9;;
51491;SDS011;37569;50.548;8.778;2022-07-23T11:27:40;6.3;;;5.7;;
51491;SDS011;37569;50.548;8.778;2022-07-23T11:32:41;6.6;;;5.9;;
51491;SDS011;37569;50.548;8.778;2022-07-23T11:37:42;6.7;;;6.1;;
51491;SDS011;37569;50.548;8.778;2022-07-23T11:42:54;6.6;;;6;;
51491;SDS011;37569;50.548;8.778;2022-07-23T11:47:44;6.6;;;6;;
51491;SDS011;37569;50.548;8.778;2022-07-23T11:52:45;6.3;;;5.7;;
51491;SDS011;37569;50.548;8.778;2022-07-23T11:57:47;6.5;;;5.9;;
51491;SDS011;37569;50.548;8.778;2022-07-23T12:02:49;6.7;;;5.3;;
51491;SDS011;37569;50.548;8.778;2022-07-23T12:07:50;7.5;;;5.9;;
51491;SDS011;37569;50.548;8.778;2022-07-23T12:12:51;6.2;;;5.6;;
51491;SDS011;37569;50.548;8.778;2022-07-23T12:17:52;6.6;;;5.9;;
51491;SDS011;37569;50.548;8.778;2022-07-23T12:22:55;5.7;;;5.2;;
51491;SDS011;37569;50.548;8.778;2022-07-23T12:27:58;6;;;5.4;;
51491;SDS011;37569;50.548;8.778;2022-07-23T12:32:56;5.9;;;5.3;;
51491;SDS011;37569;50.548;8.778;2022-07-23T12:37:59;5.9;;;5.3;;
51491;SDS011;37569;50.548;8.778;2022-07-23T12:42:59;5.9;;;5.4;;
51491;SDS011;37569;50.548;8.778;2022-07-23T12:48:00;6.2;;;5.6;;
51491;SDS011;37569;50.548;8.778;2022-07-23T12:53:04;6.5;;;5.5;;
51491;SDS011;37569;50.548;8.778;2022-07-23T12:58:03;5.9;;;5.2;;
51491;SDS011;37569;50.548;8.778;2022-07-23T13:03:03;6;;;5.4;;
51491;SDS011;37569;50.548;8.778;2022-07-23T13:08:04;5.7;;;5.1;;
51491;SDS011;37569;50.548;8.778;2022-07-23T13:13:07;5.7;;;4.8;;
51491;SDS011;37569;50.548;8.778;2022-07-23T13:18:06;5.8;;;5.2;;
51491;SDS011;37569;50.548;8.778;2022-07-23T13:23:08;5.2;;;4.7;;
51491;SDS011;37569;50.548;8.778;2022-07-23T13:28:09;5;;;4.5;;
51491;SDS011;37569;50.548;8.778;2022-07-23T13:33:10;5.4;;;4.9;;
51491;SDS011;37569;50.548;8.778;2022-07-23T13:38:12;5.4;;;4.7;;
51491;SDS011;37569;50.548;8.778;2022-07-23T13:43:14;4.6;;;4.2;;
51491;SDS011;37569;50.548;8.778;2022-07-23T13:48:14;5.6;;;4.4;;
51491;SDS011;37569;50.548;8.778;2022-07-23T13:53:16;4.5;;;4.1;;
51491;SDS011;37569;50.548;8.778;2022-07-23T13:58:17;4.7;;;4.1;;
51491;SDS011;37569;50.548;8.778;2022-07-23T14:03:19;4.5;;;4.1;;
51491;SDS011;37569;50.548;8.778;2022-07-23T14:08:19;4.3;;;3.9;;
51491;SDS011;37569;50.548;8.778;2022-07-23T14:13:20;4.4;;;4;;
51491;SDS011;37569;50.548;8.778;2022-07-23T14:18:22;4.3;;;3.9;;
51491;SDS011;37569;50.548;8.778;2022-07-23T14:23:23;4.3;;;3.9;;
51491;SDS011;37569;50.548;8.778;2022-07-23T14:28:24;5;;;4;;
51491;SDS011;37569;50.548;8.778;2022-07-23T14:33:25;5;;;4.2;;
51491;SDS011;37569;50.548;8.778;2022-07-23T14:38:27;4.3;;;3.9;;
51491;SDS011;37569;50.548;8.778;2022-07-23T14:43:28;4.8;;;3.8;;
51491;SDS011;37569;50.548;8.778;2022-07-23T14:48:29;3.9;;;3.5;;
51491;SDS011;37569;50.548;8.778;2022-07-23T14:53:30;4.1;;;3.7;;
51491;SDS011;37569;50.548;8.778;2022-07-23T14:58:32;4.4;;;3.7;;
51491;SDS011;37569;50.548;8.778;2022-07-23T15:03:33;4.1;;;3.4;;
51491;SDS011;37569;50.548;8.778;2022-07-23T15:08:34;4.3;;;3.6;;
51491;SDS011;37569;50.548;8.778;2022-07-23T15:13:35;3.9;;;3.3;;
51491;SDS011;37569;50.548;8.778;2022-07-23T15:18:37;4.6;;;3.6;;
51491;SDS011;37569;50.548;8.778;2022-07-23T15:23:38;4.1;;;3.5;;
51491;SDS011;37569;50.548;8.778;2022-07-23T15:28:39;3.8;;;3.5;;
51491;SDS011;37569;50.548;8.778;2022-07-23T15:33:40;4.8;;;3.5;;
51491;SDS011;37569;50.548;8.778;2022-07-23T15:38:41;3.8;;;3.4;;
51491;SDS011;37569;50.548;8.778;2022-07-23T15:43:43;3.9;;;3.3;;
51491;SDS011;37569;50.548;8.778;2022-07-23T15:48:44;3.9;;;3.2;;
51491;SDS011;37569;50.548;8.778;2022-07-23T15:53:45;3.8;;;3.4;;
51491;SDS011;37569;50.548;8.778;2022-07-23T15:58:46;4;;;3.6;;
51491;SDS011;37569;50.548;8.778;2022-07-23T16:03:48;4.3;;;3.6;;
51491;SDS011;37569;50.548;8.778;2022-07-23T16:08:49;4.1;;;3.5;;
51491;SDS011;37569;50.548;8.778;2022-07-23T16:13:50;4.7;;;3.7;;
51491;SDS011;37569;50.548;8.778;2022-07-23T16:18:52;4;;;3.6;;
51491;SDS011;37569;50.548;8.778;2022-07-23T16:23:52;3.7;;;3.3;;
51491;SDS011;37569;50.548;8.778;2022-07-23T16:28:54;4.7;;;4.3;;
51491;SDS011;37569;50.548;8.778;2022-07-23T16:33:55;3.8;;;3.5;;
51491;SDS011;37569;50.548;8.778;2022-07-23T16:38:56;5.8;;;4;;
51491;SDS011;37569;50.548;8.778;2022-07-23T16:43:57;4.2;;;3.8;;
51491;SDS011;37569;50.548;8.778;2022-07-23T16:48:58;5.2;;;4.7;;
51491;SDS011;37569;50.548;8.778;2022-07-23T16:54:00;4.6;;;3.7;;
51491;SDS011;37569;50.548;8.778;2022-07-23T16:59:01;4.3;;;3.5;;
51491;SDS011;37569;50.548;8.778;2022-07-23T17:04:02;5.4;;;3.5;;
51491;SDS011;37569;50.548;8.778;2022-07-23T17:09:03;4.5;;;3.7;;
51491;SDS011;37569;50.548;8.778;2022-07-23T17:14:04;4.2;;;3.7;;
51491;SDS011;37569;50.548;8.778;2022-07-23T17:19:05;5.6;;;3.9;;
51491;SDS011;37569;50.548;8.778;2022-07-23T17:24:07;5.2;;;4;;
51491;SDS011;37569;50.548;8.778;2022-07-23T17:29:08;4.4;;;3.6;;
51491;SDS011;37569;50.548;8.778;2022-07-23T17:34:09;4;;;3.6;;
51491;SDS011;37569;50.548;8.778;2022-07-23T17:39:10;4.5;;;4;;
51491;SDS011;37569;50.548;8.778;2022-07-23T17:44:11;4.1;;;3.7;;
51491;SDS011;37569;50.548;8.778;2022-07-23T17:49:12;4.6;;;3.8;;
51491;SDS011;37569;50.548;8.778;2022-07-23T17:54:13;4.4;;;3.9;;
51491;SDS011;37569;50.548;8.778;2022-07-23T17:59:15;5.8;;;3.8;;
51491;SDS011;37569;50.548;8.778;2022-07-23T18:04:16;4.6;;;3.7;;
51491;SDS011;37569;50.548;8.778;2022-07-23T18:09:17;5.5;;;4;;
51491;SDS011;37569;50.548;8.778;2022-07-23T18:14:18;4.9;;;4;;
51491;SDS011;37569;50.548;8.778;2022-07-23T18:19:19;4.3;;;3.9;;
51491;SDS011;37569;50.548;8.778;2022-07-23T18:24:20;4.1;;;3.7;;
51491;SDS011;37569;50.548;8.778;2022-07-23T18:29:21;4.5;;;3.9;;
51491;SDS011;37569;50.548;8.778;2022-07-23T18:34:23;4.8;;;4;;
51491;SDS011;37569;50.548;8.778;2022-07-23T18:39:24;4.4;;;4;;
51491;SDS011;37569;50.548;8.778;2022-07-23T18:44:25;7.3;;;4.3;;
51491;SDS011;37569;50.548;8.778;2022-07-23T18:49:26;4.5;;;4.1;;
51491;SDS011;37569;50.548;8.778;2022-07-23T18:54:27;6.2;;;4.7;;
51491;SDS011;37569;50.548;8.778;2022-07-23T18:59:28;4.7;;;4.2;;
51491;SDS011;37569;50.548;8.778;2022-07-23T19:04:29;5;;;4.5;;
51491;SDS011;37569;50.548;8.778;2022-07-23T19:09:30;5;;;4.5;;
51491;SDS011;37569;50.548;8.778;2022-07-23T19:14:31;5;;;4.5;;
51491;SDS011;37569;50.548;8.778;2022-07-23T19:19:32;5.3;;;4.5;;
51491;SDS011;37569;50.548;8.778;2022-07-23T19:24:34;5.6;;;4.7;;
51491;SDS011;37569;50.548;8.778;2022-07-23T19:29:35;5.8;;;4.5;;
51491;SDS011;37569;50.548;8.778;2022-07-23T19:34:36;5.5;;;4.5;;
51491;SDS011;37569;50.548;8.778;2022-07-23T19:39:37;5.9;;;4.8;;
51491;SDS011;37569;50.548;8.778;2022-07-23T19:44:38;5.6;;;5;;
51491;SDS011;37569;50.548;8.778;2022-07-23T19:49:39;6.8;;;6.1;;
51491;SDS011;37569;50.548;8.778;2022-07-23T19:54:40;6.1;;;5.3;;
51491;SDS011;37569;50.548;8.778;2022-07-23T19:59:41;6.4;;;5.4;;
51491;SDS011;37569;50.548;8.778;2022-07-23T20:04:42;6.3;;;5.5;;
51491;SDS011;37569;50.548;8.778;2022-07-23T20:09:43;6;;;5.2;;
51491;SDS011;37569;50.548;8.778;2022-07-23T20:14:43;5.8;;;5.2;;
51491;SDS011;37569;50.548;8.778;2022-07-23T20:19:45;5.3;;;4.8;;
51491;SDS011;37569;50.548;8.778;2022-07-23T20:24:45;5.9;;;5.3;;
51491;SDS011;37569;50.548;8.778;2022-07-23T20:29:46;6.5;;;5.1;;
51491;SDS011;37569;50.548;8.778;2022-07-23T20:34:47;5.6;;;4.9;;
51491;SDS011;37569;50.548;8.778;2022-07-23T20:39:48;6.7;;;4.9;;
51491;SDS011;37569;50.548;8.778;2022-07-23T20:44:49;6.1;;;4.7;;
51491;SDS011;37569;50.548;8.778;2022-07-23T20:49:50;6;;;4.6;;
51491;SDS011;37569;50.548;8.778;2022-07-23T20:54:51;5.4;;;4.4;;
51491;SDS011;37569;50.548;8.778;2022-07-23T20:59:52;6;;;4.7;;
51491;SDS011;37569;50.548;8.778;2022-07-23T21:04:53;6.6;;;4.7;;
51491;SDS011;37569;50.548;8.778;2022-07-23T21:09:54;5.6;;;4.6;;
51491;SDS011;37569;50.548;8.778;2022-07-23T21:14:55;5.2;;;4.3;;
51491;SDS011;37569;50.548;8.778;2022-07-23T21:19:56;4.4;;;4;;
51491;SDS011;37569;50.548;8.778;2022-07-23T21:24:56;6.9;;;4.1;;
51491;SDS011;37569;50.548;8.778;2022-07-23T21:29:57;4.6;;;4;;
51491;SDS011;37569;50.548;8.778;2022-07-23T21:34:58;7.8;;;3.7;;
51491;SDS011;37569;50.548;8.778;2022-07-23T21:39:59;4.2;;;3.6;;
51491;SDS011;37569;50.548;8.778;2022-07-23T21:45:00;5.3;;;4.8;;
51491;SDS011;37569;50.548;8.778;2022-07-23T21:50:01;8.1;;;7.3;;
51491;SDS011;37569;50.548;8.778;2022-07-23T21:55:02;8.2;;;6;;
51491;SDS011;37569;50.548;8.778;2022-07-23T22:00:03;7;;;6;;
51491;SDS011;37569;50.548;8.778;2022-07-23T22:05:04;6.1;;;4.6;;
51491;SDS011;37569;50.548;8.778;2022-07-23T22:10:05;5.6;;;4.3;;
51491;SDS011;37569;50.548;8.778;2022-07-23T22:15:06;4.4;;;3.6;;
51491;SDS011;37569;50.548;8.778;2022-07-23T22:20:06;3.8;;;3.4;;
51491;SDS011;37569;50.548;8.778;2022-07-23T22:25:07;5.1;;;3.8;;
51491;SDS011;37569;50.548;8.778;2022-07-23T22:30:09;5.5;;;3.9;;
51491;SDS011;37569;50.548;8.778;2022-07-23T22:35:09;4;;;3.6;;
51491;SDS011;37569;50.548;8.778;2022-07-23T22:40:10;4.8;;;3.8;;
51491;SDS011;37569;50.548;8.778;2022-07-23T22:45:10;6.2;;;4.4;;
51491;SDS011;37569;50.548;8.778;2022-07-23T22:50:11;5.9;;;4.5;;
51491;SDS011;37569;50.548;8.778;2022-07-23T22:55:12;5.3;;;4.1;;
51491;SDS011;37569;50.548;8.778;2022-07-23T23:00:13;4.6;;;4.1;;
51491;SDS011;37569;50.548;8.778;2022-07-23T23:05:14;5.3;;;4.2;;
51491;SDS011;37569;50.548;8.778;2022-07-23T23:10:14;5.7;;;4.1;;
51491;SDS011;37569;50.548;8.778;2022-07-23T23:15:15;4.4;;;4;;
51491;SDS011;37569;50.548;8.778;2022-07-23T23:20:16;4.3;;;3.8;;
51491;SDS011;37569;50.548;8.778;2022-07-23T23:25:17;4.2;;;3.7;;
51491;SDS011;37569;50.548;8.778;2022-07-23T23:30:18;4.4;;;3.6;;
51491;SDS011;37569;50.548;8.778;2022-07-23T23:35:19;4.3;;;3.7;;
51491;SDS011;37569;50.548;8.778;2022-07-23T23:40:19;4.3;;;3.7;;
51491;SDS011;37569;50.548;8.778;2022-07-23T23:45:20;4.3;;;3.7;;
51491;SDS011;37569;50.548;8.778;2022-07-23T23:50:21;5.5;;;3.8;;
51491;SDS011;37569;50.548;8.778;2022-07-23T23:55:22;4.8;;;3.8;;
